createdAt,value
2022-07-28T00:00:08.534Z,994.45
2022-07-28T00:01:07.437Z,994.46
2022-07-28T00:02:07.472Z,994.45
2022-07-28T00:03:07.478Z,994.45
2022-07-28T00:04:07.471Z,994.40
2022-07-28T00:05:07.531Z,994.45
2022-07-28T00:06:07.518Z,994.43
2022-07-28T00:07:07.505Z,994.33
2022-07-28T00:08:07.565Z,994.40
2022-07-28T00:09:07.538Z,994.33
2022-07-28T00:10:07.544Z,994.45
2022-07-28T00:11:07.592Z,994.37
2022-07-28T00:12:07.545Z,994.34
2022-07-28T00:13:07.627Z,994.33
2022-07-28T00:14:07.570Z,994.29
2022-07-28T00:15:07.608Z,994.33
2022-07-28T00:16:07.647Z,994.39
2022-07-28T00:17:07.623Z,994.33
2022-07-28T00:18:07.657Z,994.25
2022-07-28T00:19:07.639Z,994.31
2022-07-28T00:20:07.658Z,994.28
2022-07-28T00:21:07.671Z,994.35
2022-07-28T00:22:07.684Z,994.34
2022-07-28T00:23:07.709Z,994.36
2022-07-28T00:24:07.694Z,994.35
2022-07-28T00:25:07.715Z,994.31
2022-07-28T00:26:07.808Z,994.37
2022-07-28T00:27:07.740Z,994.33
2022-07-28T00:28:07.774Z,994.32
2022-07-28T00:29:07.756Z,994.37
2022-07-28T00:30:07.779Z,994.38
2022-07-28T00:31:09.478Z,994.36
2022-07-28T00:32:07.833Z,994.34
2022-07-28T00:33:07.814Z,994.31
2022-07-28T00:34:07.838Z,994.36
2022-07-28T00:35:08.291Z,994.34
2022-07-28T00:36:10.363Z,994.28
2022-07-28T00:37:07.791Z,994.29
2022-07-28T00:38:07.825Z,994.30
2022-07-28T00:39:07.808Z,994.29
2022-07-28T00:40:07.776Z,994.21
2022-07-28T00:41:07.811Z,994.26
2022-07-28T00:42:07.802Z,994.21
2022-07-28T00:43:07.817Z,994.21
2022-07-28T00:44:07.809Z,994.24
2022-07-28T00:45:07.806Z,994.23
2022-07-28T00:46:08.034Z,994.19
2022-07-28T00:47:07.819Z,994.23
2022-07-28T00:48:07.832Z,994.35
2022-07-28T00:49:07.922Z,994.24
2022-07-28T00:50:07.828Z,994.31
2022-07-28T00:51:07.823Z,994.21
2022-07-28T00:52:07.816Z,994.23
2022-07-28T00:53:07.866Z,994.26
2022-07-28T00:54:07.820Z,994.24
2022-07-28T00:55:07.859Z,994.23
2022-07-28T00:56:07.820Z,994.23
2022-07-28T00:57:07.805Z,994.24
2022-07-28T00:58:07.821Z,994.28
2022-07-28T00:59:07.852Z,994.17
2022-07-28T01:00:07.813Z,994.12
2022-07-28T01:01:07.867Z,994.16
2022-07-28T01:02:07.968Z,994.11
2022-07-28T01:03:07.902Z,994.11
2022-07-28T01:04:07.850Z,994.09
2022-07-28T01:05:07.808Z,994.10
2022-07-28T01:06:07.821Z,994.13
2022-07-28T01:07:07.850Z,994.13
2022-07-28T01:08:07.850Z,994.08
2022-07-28T01:09:07.842Z,994.04
2022-07-28T01:10:07.829Z,994.11
2022-07-28T01:11:07.885Z,994.02
2022-07-28T01:12:07.832Z,994.10
2022-07-28T01:13:07.863Z,994.03
2022-07-28T01:14:07.847Z,994.01
2022-07-28T01:15:07.837Z,994.11
2022-07-28T01:16:07.913Z,994.14
2022-07-28T01:17:07.848Z,994.11
2022-07-28T01:18:07.869Z,994.09
2022-07-28T01:19:07.889Z,994.14
2022-07-28T01:20:07.845Z,994.15
2022-07-28T01:21:07.834Z,994.09
2022-07-28T01:22:07.883Z,994.15
2022-07-28T01:23:07.872Z,994.12
2022-07-28T01:24:07.863Z,994.07
2022-07-28T01:25:07.850Z,994.11
2022-07-28T01:26:07.835Z,994.14
2022-07-28T01:27:07.891Z,994.07
2022-07-28T01:28:07.905Z,994.11
2022-07-28T01:29:07.861Z,994.10
2022-07-28T01:30:07.873Z,994.10
2022-07-28T01:31:07.975Z,994.09
2022-07-28T01:32:07.898Z,994.05
2022-07-28T01:33:07.885Z,994.07
2022-07-28T01:34:07.895Z,993.98
2022-07-28T01:35:07.882Z,994.02
2022-07-28T01:36:07.859Z,994.04
2022-07-28T01:37:07.887Z,994.03
2022-07-28T01:38:07.872Z,994.06
2022-07-28T01:39:07.904Z,993.99
2022-07-28T01:40:07.912Z,994.05
2022-07-28T01:41:07.911Z,994.03
2022-07-28T01:42:07.870Z,993.98
2022-07-28T01:43:08.397Z,993.99
2022-07-28T01:44:07.879Z,994.03
2022-07-28T01:45:08.012Z,994.04
2022-07-28T01:46:07.971Z,994.03
2022-07-28T01:47:07.880Z,993.99
2022-07-28T01:48:07.899Z,993.98
2022-07-28T01:49:07.982Z,993.87
2022-07-28T01:50:07.878Z,993.97
2022-07-28T01:51:07.896Z,993.92
2022-07-28T01:52:07.934Z,993.92
2022-07-28T01:53:07.929Z,993.91
2022-07-28T01:54:07.904Z,993.92
2022-07-28T01:55:07.903Z,993.90
2022-07-28T01:56:07.928Z,993.82
2022-07-28T01:57:07.999Z,993.86
2022-07-28T01:58:07.940Z,993.82
2022-07-28T01:59:07.964Z,993.88
2022-07-28T02:00:07.972Z,993.80
2022-07-28T02:01:08.052Z,993.84
2022-07-28T02:02:08.106Z,993.84
2022-07-28T02:03:08.027Z,993.80
2022-07-28T02:04:08.040Z,993.78
2022-07-28T02:05:08.103Z,993.81
2022-07-28T02:06:08.092Z,993.79
2022-07-28T02:07:08.093Z,993.83
2022-07-28T02:08:08.113Z,993.76
2022-07-28T02:09:08.081Z,993.75
2022-07-28T02:10:08.119Z,993.76
2022-07-28T02:11:09.697Z,993.85
2022-07-28T02:12:08.180Z,993.74
2022-07-28T02:13:08.155Z,993.78
2022-07-28T02:14:08.167Z,993.81
2022-07-28T02:15:08.163Z,993.74
2022-07-28T02:16:08.219Z,993.72
2022-07-28T02:17:08.200Z,993.73
2022-07-28T02:18:08.224Z,993.70
2022-07-28T02:19:08.222Z,993.71
2022-07-28T02:20:08.244Z,993.77
2022-07-28T02:21:08.236Z,993.76
2022-07-28T02:22:08.258Z,993.72
2022-07-28T02:23:08.277Z,993.70
2022-07-28T02:24:08.314Z,993.79
2022-07-28T02:25:08.305Z,993.71
2022-07-28T02:26:08.274Z,993.72
2022-07-28T02:27:08.321Z,993.75
2022-07-28T02:28:08.354Z,993.71
2022-07-28T02:29:08.381Z,993.76
2022-07-28T02:30:08.368Z,993.75
2022-07-28T02:31:08.395Z,993.68
2022-07-28T02:32:27.339Z,993.70
2022-07-28T02:33:08.395Z,993.65
2022-07-28T02:34:08.396Z,993.70
2022-07-28T02:35:09.453Z,993.71
2022-07-28T02:36:08.381Z,993.73
2022-07-28T02:37:08.372Z,993.67
2022-07-28T02:38:08.416Z,993.66
2022-07-28T02:39:08.419Z,993.62
2022-07-28T02:40:08.355Z,993.66
2022-07-28T02:41:08.405Z,993.70
2022-07-28T02:42:08.387Z,993.65
2022-07-28T02:43:08.417Z,993.57
2022-07-28T02:44:08.431Z,993.58
2022-07-28T02:45:08.395Z,993.54
2022-07-28T02:46:08.500Z,993.54
2022-07-28T02:47:08.388Z,993.50
2022-07-28T02:48:08.385Z,993.43
2022-07-28T02:49:08.480Z,993.42
2022-07-28T02:50:08.425Z,993.44
2022-07-28T02:51:08.374Z,993.42
2022-07-28T02:52:08.418Z,993.39
2022-07-28T02:53:15.509Z,993.42
2022-07-28T02:54:08.389Z,993.37
2022-07-28T02:55:08.403Z,993.33
2022-07-28T02:56:08.389Z,993.35
2022-07-28T02:57:08.438Z,993.30
2022-07-28T02:58:08.436Z,993.33
2022-07-28T02:59:08.412Z,993.35
2022-07-28T03:00:08.398Z,993.35
2022-07-28T03:01:08.460Z,993.41
2022-07-28T03:02:08.393Z,993.40
2022-07-28T03:03:08.403Z,993.40
2022-07-28T03:04:08.387Z,993.35
2022-07-28T03:05:11.317Z,993.38
2022-07-28T03:06:08.407Z,993.41
2022-07-28T03:07:08.416Z,993.43
2022-07-28T03:08:08.418Z,993.43
2022-07-28T03:09:08.472Z,993.42
2022-07-28T03:10:08.416Z,993.47
2022-07-28T03:11:08.497Z,993.42
2022-07-28T03:12:08.492Z,993.43
2022-07-28T03:13:08.488Z,993.47
2022-07-28T03:14:08.497Z,993.47
2022-07-28T03:15:08.508Z,993.50
2022-07-28T03:16:08.534Z,993.51
2022-07-28T03:17:08.578Z,993.52
2022-07-28T03:18:08.552Z,993.47
2022-07-28T03:19:08.547Z,993.53
2022-07-28T03:20:08.592Z,993.50
2022-07-28T03:21:08.603Z,993.43
2022-07-28T03:22:10.330Z,993.49
2022-07-28T03:23:08.610Z,993.56
2022-07-28T03:24:08.639Z,993.53
2022-07-28T03:25:08.610Z,993.60
2022-07-28T03:26:08.667Z,993.60
2022-07-28T03:27:08.647Z,993.59
2022-07-28T03:28:08.669Z,993.61
2022-07-28T03:29:08.661Z,993.58
2022-07-28T03:30:08.679Z,993.60
2022-07-28T03:31:08.792Z,993.49
2022-07-28T03:32:08.732Z,993.57
2022-07-28T03:33:08.754Z,993.56
2022-07-28T03:34:08.729Z,993.56
2022-07-28T03:35:08.731Z,993.56
2022-07-28T03:36:08.744Z,993.56
2022-07-28T03:37:08.762Z,993.58
2022-07-28T03:38:08.834Z,993.53
2022-07-28T03:39:08.799Z,993.59
2022-07-28T03:40:08.795Z,993.53
2022-07-28T03:41:08.849Z,993.58
2022-07-28T03:42:08.816Z,993.53
2022-07-28T03:43:08.875Z,993.53
2022-07-28T03:44:08.850Z,993.52
2022-07-28T03:45:08.857Z,993.55
2022-07-28T03:46:13.133Z,993.56
2022-07-28T03:47:08.869Z,993.54
2022-07-28T03:48:08.901Z,993.51
2022-07-28T03:49:08.923Z,993.50
2022-07-28T03:50:08.898Z,993.55
2022-07-28T03:51:08.870Z,993.53
2022-07-28T03:52:08.918Z,993.48
2022-07-28T03:53:08.912Z,993.53
2022-07-28T03:54:08.921Z,993.55
2022-07-28T03:55:08.894Z,993.52
2022-07-28T03:56:08.870Z,993.56
2022-07-28T03:57:08.855Z,993.58
2022-07-28T03:58:08.911Z,993.53
2022-07-28T03:59:08.874Z,993.53
2022-07-28T04:00:09.899Z,993.55
2022-07-28T04:01:08.967Z,993.56
2022-07-28T04:02:08.971Z,993.56
2022-07-28T04:03:22.094Z,993.52
2022-07-28T04:04:08.899Z,993.55
2022-07-28T04:05:08.925Z,993.53
2022-07-28T04:06:08.922Z,993.52
2022-07-28T04:07:08.895Z,993.51
2022-07-28T04:08:08.915Z,993.52
2022-07-28T04:09:08.914Z,993.58
2022-07-28T04:10:08.914Z,993.58
2022-07-28T04:11:08.943Z,993.58
2022-07-28T04:12:08.919Z,993.57
2022-07-28T04:13:08.972Z,993.57
2022-07-28T04:14:13.231Z,993.53
2022-07-28T04:15:08.943Z,993.53
2022-07-28T04:16:08.894Z,993.57
2022-07-28T04:17:08.963Z,993.49
2022-07-28T04:18:08.934Z,993.46
2022-07-28T04:19:08.913Z,993.54
2022-07-28T04:20:09.122Z,993.53
2022-07-28T04:21:08.934Z,993.53
2022-07-28T04:22:08.936Z,993.52
2022-07-28T04:23:08.961Z,993.50
2022-07-28T04:24:08.947Z,993.42
2022-07-28T04:25:08.921Z,993.58
2022-07-28T04:26:08.912Z,993.51
2022-07-28T04:27:08.912Z,993.56
2022-07-28T04:28:08.959Z,993.53
2022-07-28T04:29:08.916Z,993.54
2022-07-28T04:30:08.934Z,993.51
2022-07-28T04:31:09.048Z,993.55
2022-07-28T04:32:08.909Z,993.50
2022-07-28T04:33:08.993Z,993.53
2022-07-28T04:34:08.942Z,993.58
2022-07-28T04:35:08.918Z,993.48
2022-07-28T04:36:08.956Z,993.50
2022-07-28T04:37:08.997Z,993.49
2022-07-28T04:38:08.938Z,993.46
2022-07-28T04:39:08.939Z,993.49
2022-07-28T04:40:08.922Z,993.51
2022-07-28T04:41:08.938Z,993.55
2022-07-28T04:42:08.947Z,993.50
2022-07-28T04:43:08.943Z,993.50
2022-07-28T04:44:08.961Z,993.59
2022-07-28T04:45:08.956Z,993.56
2022-07-28T04:46:11.986Z,993.60
2022-07-28T04:47:08.931Z,993.49
2022-07-28T04:48:08.991Z,993.59
2022-07-28T04:49:08.965Z,993.55
2022-07-28T04:50:08.940Z,993.57
2022-07-28T04:51:08.956Z,993.54
2022-07-28T04:52:08.970Z,993.53
2022-07-28T04:53:09.004Z,993.46
2022-07-28T04:54:08.951Z,993.52
2022-07-28T04:55:08.987Z,993.56
2022-07-28T04:56:08.982Z,993.51
2022-07-28T04:57:10.362Z,993.51
2022-07-28T04:58:09.447Z,993.51
2022-07-28T04:59:08.963Z,993.55
2022-07-28T05:00:08.985Z,993.54
2022-07-28T05:01:09.066Z,993.50
2022-07-28T05:02:08.975Z,993.49
2022-07-28T05:03:08.963Z,993.52
2022-07-28T05:04:09.045Z,993.50
2022-07-28T05:05:09.042Z,993.56
2022-07-28T05:06:08.991Z,993.48
2022-07-28T05:07:12.795Z,993.48
2022-07-28T05:08:08.975Z,993.42
2022-07-28T05:09:08.974Z,993.43
2022-07-28T05:10:08.999Z,993.48
2022-07-28T05:11:08.974Z,993.39
2022-07-28T05:12:08.967Z,993.52
2022-07-28T05:13:09.037Z,993.48
2022-07-28T05:14:08.979Z,993.53
2022-07-28T05:15:09.003Z,993.50
2022-07-28T05:16:09.072Z,993.54
2022-07-28T05:17:09.807Z,993.55
2022-07-28T05:18:08.983Z,993.46
2022-07-28T05:19:08.990Z,993.53
2022-07-28T05:20:09.007Z,993.50
2022-07-28T05:21:09.015Z,993.46
2022-07-28T05:22:08.986Z,993.50
2022-07-28T05:23:08.999Z,993.42
2022-07-28T05:24:08.984Z,993.49
2022-07-28T05:25:09.042Z,993.49
2022-07-28T05:26:08.990Z,993.53
2022-07-28T05:27:09.016Z,993.48
2022-07-28T05:28:09.007Z,993.43
2022-07-28T05:29:08.998Z,993.45
2022-07-28T05:30:09.002Z,993.47
2022-07-28T05:31:09.005Z,993.48
2022-07-28T05:32:16.823Z,993.45
2022-07-28T05:33:08.993Z,993.50
2022-07-28T05:34:09.007Z,993.46
2022-07-28T05:35:09.007Z,993.45
2022-07-28T05:36:09.024Z,993.47
2022-07-28T05:37:09.008Z,993.47
2022-07-28T05:38:10.925Z,993.48
2022-07-28T05:39:09.012Z,993.47
2022-07-28T05:40:09.000Z,993.46
2022-07-28T05:41:09.008Z,993.45
2022-07-28T05:42:09.012Z,993.52
2022-07-28T05:43:09.010Z,993.47
2022-07-28T05:44:09.009Z,993.52
2022-07-28T05:45:16.411Z,993.51
2022-07-28T05:46:09.050Z,993.55
2022-07-28T05:47:09.000Z,993.54
2022-07-28T05:48:09.026Z,993.53
2022-07-28T05:49:09.092Z,993.56
2022-07-28T05:50:09.017Z,993.56
2022-07-28T05:51:09.012Z,993.53
2022-07-28T05:52:09.035Z,993.54
2022-07-28T05:53:09.029Z,993.49
2022-07-28T05:54:09.024Z,993.49
2022-07-28T05:55:09.020Z,993.55
2022-07-28T05:56:09.050Z,993.55
2022-07-28T05:57:09.037Z,993.58
2022-07-28T05:58:09.076Z,993.62
2022-07-28T05:59:09.055Z,993.54
2022-07-28T06:00:09.030Z,993.53
2022-07-28T06:01:09.101Z,993.55
2022-07-28T06:02:09.088Z,993.46
2022-07-28T06:03:09.052Z,993.54
2022-07-28T06:04:26.566Z,993.53
2022-07-28T06:05:09.075Z,993.53
2022-07-28T06:06:15.653Z,993.62
2022-07-28T06:07:09.043Z,993.62
2022-07-28T06:08:09.081Z,993.52
2022-07-28T06:09:09.064Z,993.54
2022-07-28T06:10:09.029Z,993.59
2022-07-28T06:11:09.037Z,993.52
2022-07-28T06:12:09.054Z,993.51
2022-07-28T06:13:09.074Z,993.55
2022-07-28T06:14:09.076Z,993.57
2022-07-28T06:15:09.072Z,993.67
2022-07-28T06:16:13.019Z,993.57
2022-07-28T06:17:09.078Z,993.58
2022-07-28T06:18:09.097Z,993.63
2022-07-28T06:19:09.033Z,993.59
2022-07-28T06:20:09.050Z,993.55
2022-07-28T06:21:09.073Z,993.57
2022-07-28T06:22:09.076Z,993.70
2022-07-28T06:23:09.067Z,993.62
2022-07-28T06:24:09.058Z,993.60
2022-07-28T06:25:09.083Z,993.62
2022-07-28T06:26:09.069Z,993.56
2022-07-28T06:27:09.056Z,993.56
2022-07-28T06:28:09.085Z,993.53
2022-07-28T06:29:09.095Z,993.49
2022-07-28T06:30:09.076Z,993.49
2022-07-28T06:31:09.122Z,993.51
2022-07-28T06:32:09.105Z,993.50
2022-07-28T06:33:12.707Z,993.56
2022-07-28T06:34:09.072Z,993.54
2022-07-28T06:35:09.085Z,993.52
2022-07-28T06:36:09.076Z,993.46
2022-07-28T06:37:09.065Z,993.41
2022-07-28T06:38:09.082Z,993.47
2022-07-28T06:39:09.087Z,993.47
2022-07-28T06:40:09.118Z,993.42
2022-07-28T06:41:09.089Z,993.44
2022-07-28T06:42:09.079Z,993.46
2022-07-28T06:43:09.098Z,993.50
2022-07-28T06:44:09.090Z,993.34
2022-07-28T06:45:09.057Z,993.40
2022-07-28T06:46:09.094Z,993.40
2022-07-28T06:47:09.180Z,993.35
2022-07-28T06:48:09.147Z,993.41
2022-07-28T06:49:09.143Z,993.39
2022-07-28T06:50:26.328Z,993.45
2022-07-28T06:51:09.102Z,993.41
2022-07-28T06:52:09.098Z,993.43
2022-07-28T06:53:09.103Z,993.47
2022-07-28T06:54:11.416Z,993.42
2022-07-28T06:55:09.126Z,993.39
2022-07-28T06:56:09.125Z,993.39
2022-07-28T06:57:09.121Z,993.42
2022-07-28T06:58:09.112Z,993.45
2022-07-28T06:59:09.110Z,993.38
2022-07-28T07:00:09.123Z,993.42
2022-07-28T07:01:09.166Z,993.35
2022-07-28T07:02:09.125Z,993.34
2022-07-28T07:03:09.863Z,993.38
2022-07-28T07:04:09.185Z,993.38
2022-07-28T07:05:09.103Z,993.33
2022-07-28T07:06:09.105Z,993.35
2022-07-28T07:07:14.979Z,993.33
2022-07-28T07:08:09.123Z,993.41
2022-07-28T07:09:09.128Z,993.38
2022-07-28T07:10:09.112Z,993.36
2022-07-28T07:11:09.111Z,993.43
2022-07-28T07:12:09.103Z,993.38
2022-07-28T07:13:09.121Z,993.36
2022-07-28T07:14:09.137Z,993.42
2022-07-28T07:15:09.100Z,993.43
2022-07-28T07:16:09.170Z,993.36
2022-07-28T07:17:09.132Z,993.37
2022-07-28T07:18:09.183Z,993.35
2022-07-28T07:19:13.967Z,993.39
2022-07-28T07:20:09.119Z,993.33
2022-07-28T07:21:09.178Z,993.30
2022-07-28T07:22:09.156Z,993.31
2022-07-28T07:23:09.163Z,993.34
2022-07-28T07:24:09.122Z,993.39
2022-07-28T07:25:09.170Z,993.33
2022-07-28T07:26:09.119Z,993.36
2022-07-28T07:27:09.141Z,993.33
2022-07-28T07:28:09.177Z,993.30
2022-07-28T07:29:09.132Z,993.30
2022-07-28T07:30:09.185Z,993.32
2022-07-28T07:31:09.223Z,993.30
2022-07-28T07:32:10.966Z,993.21
2022-07-28T07:33:10.301Z,993.34
2022-07-28T07:34:09.136Z,993.27
2022-07-28T07:35:09.149Z,993.21
2022-07-28T07:36:09.133Z,993.21
2022-07-28T07:37:09.184Z,993.25
2022-07-28T07:38:09.189Z,993.24
2022-07-28T07:39:09.128Z,993.20
2022-07-28T07:40:09.115Z,993.23
2022-07-28T07:41:09.157Z,993.13
2022-07-28T07:42:09.182Z,993.14
2022-07-28T07:43:09.161Z,993.20
2022-07-28T07:44:09.125Z,993.15
2022-07-28T07:45:09.162Z,993.17
2022-07-28T07:46:09.204Z,993.18
2022-07-28T07:47:09.149Z,993.17
2022-07-28T07:48:09.167Z,993.19
2022-07-28T07:49:09.213Z,993.17
2022-07-28T07:50:09.183Z,993.20
2022-07-28T07:51:15.345Z,993.10
2022-07-28T07:52:09.163Z,993.09
2022-07-28T07:53:09.157Z,993.02
2022-07-28T07:54:09.912Z,993.07
2022-07-28T07:55:09.180Z,993.08
2022-07-28T07:56:09.162Z,993.05
2022-07-28T07:57:09.175Z,993.13
2022-07-28T07:58:09.207Z,993.13
2022-07-28T07:59:09.191Z,993.16
2022-07-28T08:00:28.295Z,993.04
2022-07-28T08:01:09.199Z,993.19
2022-07-28T08:02:09.277Z,993.08
2022-07-28T08:03:11.372Z,993.03
2022-07-28T08:04:09.229Z,993.15
2022-07-28T08:05:09.258Z,993.13
2022-07-28T08:06:09.231Z,993.11
2022-07-28T08:07:09.188Z,993.04
2022-07-28T08:08:09.219Z,993.04
2022-07-28T08:09:09.221Z,993.10
2022-07-28T08:10:09.221Z,993.03
2022-07-28T08:11:09.204Z,993.03
2022-07-28T08:12:09.185Z,992.96
2022-07-28T08:13:09.209Z,992.97
2022-07-28T08:14:09.260Z,992.92
2022-07-28T08:15:09.203Z,992.94
2022-07-28T08:16:09.245Z,993.01
2022-07-28T08:17:09.219Z,992.84
2022-07-28T08:18:09.225Z,992.91
2022-07-28T08:19:36.158Z,992.95
2022-07-28T08:20:36.208Z,992.88
2022-07-28T08:21:36.223Z,992.91
2022-07-28T08:22:36.192Z,992.86
2022-07-28T08:23:36.194Z,992.86
2022-07-28T08:24:36.231Z,992.93
2022-07-28T08:25:36.193Z,992.95
2022-07-28T08:26:36.182Z,992.89
2022-07-28T08:27:36.221Z,992.89
2022-07-28T08:28:36.184Z,992.85
2022-07-28T08:29:36.201Z,992.88
2022-07-28T08:30:36.219Z,992.88
2022-07-28T08:31:36.241Z,992.95
2022-07-28T08:32:36.197Z,992.91
2022-07-28T08:33:36.197Z,992.92
2022-07-28T08:34:36.350Z,992.90
2022-07-28T08:35:36.217Z,992.91
2022-07-28T08:36:36.232Z,992.90
2022-07-28T08:37:36.192Z,992.88
2022-07-28T08:38:36.213Z,992.84
2022-07-28T08:39:36.213Z,992.83
2022-07-28T08:40:36.221Z,992.87
2022-07-28T08:41:36.246Z,992.86
2022-07-28T08:42:36.217Z,992.85
2022-07-28T08:43:36.219Z,992.77
2022-07-28T08:44:36.219Z,992.84
2022-07-28T08:45:37.268Z,992.88
2022-07-28T08:46:36.312Z,992.79
2022-07-28T08:47:46.059Z,992.86
2022-07-28T08:48:36.337Z,992.86
2022-07-28T08:49:36.221Z,992.87
2022-07-28T08:50:36.208Z,992.83
2022-07-28T08:51:36.329Z,992.82
2022-07-28T08:52:36.247Z,992.90
2022-07-28T08:53:36.219Z,992.92
2022-07-28T08:54:36.215Z,992.91
2022-07-28T08:55:36.367Z,992.93
2022-07-28T08:56:36.374Z,992.84
2022-07-28T08:57:36.401Z,992.96
2022-07-28T08:58:36.411Z,992.93
2022-07-28T08:59:36.415Z,992.91
2022-07-28T09:00:36.467Z,992.79
2022-07-28T09:01:38.983Z,992.82
2022-07-28T09:02:36.590Z,992.74
2022-07-28T09:03:36.494Z,992.74
2022-07-28T09:04:36.434Z,992.65
2022-07-28T09:05:36.438Z,992.75
2022-07-28T09:06:36.462Z,992.73
2022-07-28T09:07:36.468Z,992.70
2022-07-28T09:08:36.435Z,992.63
2022-07-28T09:09:36.462Z,992.75
2022-07-28T09:10:36.472Z,992.65
2022-07-28T09:11:36.471Z,992.66
2022-07-28T09:12:36.503Z,992.62
2022-07-28T09:13:36.508Z,992.62
2022-07-28T09:14:36.516Z,992.60
2022-07-28T09:15:36.538Z,992.68
2022-07-28T09:16:36.522Z,992.63
2022-07-28T09:17:36.539Z,992.65
2022-07-28T09:18:36.574Z,992.67
2022-07-28T09:19:36.592Z,992.67
2022-07-28T09:20:36.578Z,992.68
2022-07-28T09:21:36.613Z,992.68
2022-07-28T09:22:36.608Z,992.65
2022-07-28T09:23:44.009Z,992.57
2022-07-28T09:24:36.620Z,992.64
2022-07-28T09:25:36.605Z,992.53
2022-07-28T09:26:36.627Z,992.63
2022-07-28T09:27:36.617Z,992.60
2022-07-28T09:28:36.647Z,992.56
2022-07-28T09:29:36.646Z,992.62
2022-07-28T09:30:36.649Z,992.62
2022-07-28T09:31:36.727Z,992.62
2022-07-28T09:32:36.639Z,992.63
2022-07-28T09:33:43.281Z,992.59
2022-07-28T09:34:36.653Z,992.66
2022-07-28T09:35:36.657Z,992.60
2022-07-28T09:36:36.660Z,992.61
2022-07-28T09:37:36.630Z,992.58
2022-07-28T09:38:36.699Z,992.58
2022-07-28T09:39:36.652Z,992.56
2022-07-28T09:40:36.670Z,992.51
2022-07-28T09:41:36.662Z,992.55
2022-07-28T09:42:36.648Z,992.47
2022-07-28T09:43:36.654Z,992.47
2022-07-28T09:44:36.659Z,992.48
2022-07-28T09:45:36.656Z,992.48
2022-07-28T09:46:36.860Z,992.52
2022-07-28T09:47:36.881Z,992.41
2022-07-28T09:48:36.801Z,992.38
2022-07-28T09:49:36.709Z,992.38
2022-07-28T09:50:36.658Z,992.41
2022-07-28T09:51:36.675Z,992.47
2022-07-28T09:52:36.695Z,992.41
2022-07-28T09:53:36.674Z,992.38
2022-07-28T09:54:40.680Z,992.39
2022-07-28T09:55:36.669Z,992.39
2022-07-28T09:56:36.665Z,992.44
2022-07-28T09:57:36.916Z,992.38
2022-07-28T09:58:36.684Z,992.37
2022-07-28T09:59:36.675Z,992.44
2022-07-28T10:00:36.694Z,992.33
2022-07-28T10:01:37.440Z,992.29
2022-07-28T10:02:36.739Z,992.39
2022-07-28T10:03:36.701Z,992.33
2022-07-28T10:04:36.666Z,992.33
2022-07-28T10:05:36.694Z,992.38
2022-07-28T10:06:36.731Z,992.33
2022-07-28T10:07:36.684Z,992.36
2022-07-28T10:08:36.695Z,992.36
2022-07-28T10:09:36.682Z,992.34
2022-07-28T10:10:36.701Z,992.34
2022-07-28T10:11:41.615Z,992.38
2022-07-28T10:12:36.701Z,992.28
2022-07-28T10:13:36.692Z,992.34
2022-07-28T10:14:36.703Z,992.29
2022-07-28T10:15:36.788Z,992.28
2022-07-28T10:16:36.759Z,992.29
2022-07-28T10:17:36.708Z,992.22
2022-07-28T10:18:36.693Z,992.24
2022-07-28T10:19:36.707Z,992.28
2022-07-28T10:20:36.721Z,992.28
2022-07-28T10:21:36.719Z,992.22
2022-07-28T10:22:42.476Z,992.26
2022-07-28T10:23:36.706Z,992.28
2022-07-28T10:24:36.729Z,992.30
2022-07-28T10:25:36.748Z,992.19
2022-07-28T10:26:36.729Z,992.19
2022-07-28T10:27:36.728Z,992.19
2022-07-28T10:28:41.952Z,992.26
2022-07-28T10:29:36.718Z,992.15
2022-07-28T10:30:36.764Z,992.16
2022-07-28T10:31:36.730Z,992.19
2022-07-28T10:32:36.722Z,992.19
2022-07-28T10:33:36.717Z,992.18
2022-07-28T10:34:36.739Z,992.12
2022-07-28T10:35:47.650Z,992.21
2022-07-28T10:36:36.720Z,992.11
2022-07-28T10:37:36.778Z,992.00
2022-07-28T10:38:36.744Z,992.07
2022-07-28T10:39:36.768Z,992.08
2022-07-28T10:40:36.760Z,992.10
2022-07-28T10:41:36.768Z,992.02
2022-07-28T10:42:36.777Z,992.01
2022-07-28T10:43:36.738Z,992.06
2022-07-28T10:44:36.743Z,992.02
2022-07-28T10:46:03.136Z,991.99
2022-07-28T10:46:36.801Z,991.97
2022-07-28T10:47:36.776Z,991.97
2022-07-28T10:48:36.805Z,991.97
2022-07-28T10:49:36.793Z,991.94
2022-07-28T10:50:36.760Z,991.93
2022-07-28T10:51:44.594Z,991.95
2022-07-28T10:52:47.270Z,991.92
2022-07-28T10:53:37.214Z,991.98
2022-07-28T10:54:36.860Z,991.99
2022-07-28T10:55:36.876Z,991.95
2022-07-28T10:56:36.893Z,991.91
2022-07-28T10:57:36.900Z,991.92
2022-07-28T10:58:36.915Z,991.97
2022-07-28T10:59:36.948Z,991.88
2022-07-28T11:00:54.567Z,991.93
2022-07-28T11:01:48.402Z,991.97
2022-07-28T11:02:37.034Z,991.97
2022-07-28T11:03:37.050Z,991.92
2022-07-28T11:04:36.951Z,991.97
2022-07-28T11:05:36.941Z,991.98
2022-07-28T11:06:36.961Z,991.95
2022-07-28T11:07:36.948Z,991.89
2022-07-28T11:08:36.946Z,991.85
2022-07-28T11:09:36.957Z,991.84
2022-07-28T11:10:36.966Z,991.87
2022-07-28T11:11:36.958Z,991.84
2022-07-28T11:12:36.985Z,991.86
2022-07-28T11:13:41.044Z,991.81
2022-07-28T11:14:38.101Z,991.94
2022-07-28T11:15:36.962Z,991.90
2022-07-28T11:16:37.096Z,991.85
2022-07-28T11:17:37.023Z,991.80
2022-07-28T11:18:36.980Z,991.80
2022-07-28T11:19:51.595Z,991.83
2022-07-28T11:20:36.961Z,991.85
2022-07-28T11:21:40.997Z,991.80
2022-07-28T11:22:36.995Z,991.78
2022-07-28T11:23:36.991Z,991.73
2022-07-28T11:24:36.959Z,991.88
2022-07-28T11:25:36.973Z,991.78
2022-07-28T11:26:36.972Z,991.81
2022-07-28T11:27:36.988Z,991.83
2022-07-28T11:28:36.982Z,991.75
2022-07-28T11:29:36.977Z,991.74
2022-07-28T11:30:37.179Z,991.80
2022-07-28T11:31:36.973Z,991.78
2022-07-28T11:32:44.134Z,991.81
2022-07-28T11:33:36.997Z,991.80
2022-07-28T11:34:36.993Z,991.81
2022-07-28T11:35:36.981Z,991.76
2022-07-28T11:36:36.992Z,991.70
2022-07-28T11:37:37.007Z,991.76
2022-07-28T11:38:37.000Z,991.78
2022-07-28T11:39:42.967Z,991.84
2022-07-28T11:40:37.013Z,991.70
2022-07-28T11:41:37.015Z,991.70
2022-07-28T11:42:37.008Z,991.67
2022-07-28T11:43:38.688Z,991.66
2022-07-28T11:44:37.017Z,991.70
2022-07-28T11:45:38.813Z,991.60
2022-07-28T11:46:37.726Z,991.60
2022-07-28T11:47:37.041Z,991.61
2022-07-28T11:48:37.149Z,991.60
2022-07-28T11:49:37.018Z,991.61
2022-07-28T11:50:37.001Z,991.62
2022-07-28T11:51:51.479Z,991.61
2022-07-28T11:52:37.025Z,991.58
2022-07-28T11:53:37.003Z,991.57
2022-07-28T11:54:37.018Z,991.59
2022-07-28T11:55:55.642Z,991.63
2022-07-28T11:56:37.121Z,991.57
2022-07-28T11:57:37.080Z,991.62
2022-07-28T11:58:37.053Z,991.56
2022-07-28T11:59:37.308Z,991.64
2022-07-28T12:00:37.024Z,991.56
2022-07-28T12:01:38.668Z,991.53
2022-07-28T12:02:37.144Z,991.52
2022-07-28T12:03:49.736Z,991.60
2022-07-28T12:04:37.102Z,991.61
2022-07-28T12:05:41.872Z,991.54
2022-07-28T12:06:37.046Z,991.46
2022-07-28T12:07:37.053Z,991.51
2022-07-28T12:08:37.040Z,991.47
2022-07-28T12:09:42.320Z,991.56
2022-07-28T12:10:54.388Z,991.46
2022-07-28T12:11:37.042Z,991.46
2022-07-28T12:12:37.065Z,991.45
2022-07-28T12:13:37.039Z,991.45
2022-07-28T12:14:39.002Z,991.48
2022-07-28T12:15:37.091Z,991.46
2022-07-28T12:16:37.094Z,991.40
2022-07-28T12:17:37.077Z,991.40
2022-07-28T12:18:37.052Z,991.43
2022-07-28T12:19:37.066Z,991.42
2022-07-28T12:20:37.070Z,991.44
2022-07-28T12:21:37.106Z,991.41
2022-07-28T12:22:37.067Z,991.41
2022-07-28T12:23:45.839Z,991.39
2022-07-28T12:24:45.518Z,991.37
2022-07-28T12:25:37.084Z,991.40
2022-07-28T12:26:40.608Z,991.43
2022-07-28T12:27:37.628Z,991.37
2022-07-28T12:28:37.089Z,991.35